Nissos Samos — SVAI7 — position and weather

sailwx.info

Track history (hours):
 
Tides and Currents Weather Stations Pressure Air Temp Water Temp Dewpoint Dewpoint Depression Visibility Wind Speed Wind Dir Waves Ship Positions

Nissos Samos

Last reported at 2017-Sep-21 15:09 UTC. Time now 2017-Sep-21 18:00 UTC.
Position N 37°34' E 023°52'.

Length 193 m; draft 6.8 m.

Type: Passenger vessel. MMSI: 241470000.

Date/timePositionNaut miles runAvg speedWind from/ knotsBaromVisibWave heightAir tempDewpointWater temp
2017-Sep-21 15:09N 37°34' E 023°52'319.3
2017-Sep-21 14:59N 37°36' E 023°49'918.7
2017-Sep-21 14:30N 37°42' E 023°41'1019.2
2017-Sep-21 14:00N 37°51' E 023°37'610.8
2017-Sep-21 13:29N 37°57' E 023°38'0 0.0
2017-Sep-21 13:00N 37°57' E 023°38'0 0.0
2017-Sep-21 12:30N 37°57' E 023°38'1 3.0
2017-Sep-21 12:01N 37°56' E 023°37'918.1
2017-Sep-21 11:30N 37°48' E 023°42'917.8
2017-Sep-21 11:00N 37°40' E 023°48'1018.6
2017-Sep-21 10:29N 37°36' E 023°59'1018.2
2017-Sep-21 09:55N 37°33' E 024°11'3018.0
2017-Sep-21 08:15N 37°20' E 024°45'418.2
2017-Sep-21 08:00N 37°17' E 024°49'918.2
2017-Sep-21 07:30N 37°11' E 024°58'917.8
2017-Sep-21 07:00N 37°06' E 025°07'1 1.6
2017-Sep-21 06:30N 37°06' E 025°08'917.9
2017-Sep-21 06:00N 37°10' E 025°18'510.0
2017-Sep-21 05:30N 37°06' E 025°22'611.6
2017-Sep-21 05:00N 37°01' E 025°18'2 0.3
2017-Sep-20 20:52N 36°59' E 025°19'617.9
2017-Sep-20 20:31N 37°05' E 025°20'2 4.2
2017-Sep-20 20:01N 37°06' E 025°22'815.7
2017-Sep-20 19:30N 37°10' E 025°13'6 8.5
2017-Sep-20 18:50N 37°05' E 025°09'515.7
2017-Sep-20 18:30N 37°07' E 025°03'5218.5
2017-Sep-20 15:43N 37°28' E 024°03'618.5
2017-Sep-20 15:23N 37°32' E 023°57'719.0
2017-Sep-20 15:00N 37°36' E 023°50'1818.3
2017-Sep-20 14:00N 37°51' E 023°37'612.0
2017-Sep-20 13:30N 37°57' E 023°38'0 0.0
2017-Sep-20 13:00N 37°57' E 023°38'0 0.0
2017-Sep-20 12:30N 37°57' E 023°38'0 0.0
2017-Sep-20 12:00N 37°57' E 023°38'0 0.0
2017-Sep-20 11:30N 37°57' E 023°38'0 0.0
2017-Sep-20 11:00N 37°57' E 023°38'0 0.0
2017-Sep-20 10:30N 37°57' E 023°38'0 0.0
2017-Sep-20 10:00N 37°57' E 023°38'0 0.0
2017-Sep-20 09:30N 37°57' E 023°38'0 0.0
2017-Sep-20 09:00N 37°57' E 023°38'0 0.0
2017-Sep-20 08:27N 37°57' E 023°38'0 0.0
2017-Sep-20 08:00N 37°57' E 023°38'0 0.0
2017-Sep-20 07:30N 37°57' E 023°38'0 0.0
2017-Sep-20 07:00N 37°57' E 023°38'0 0.0
2017-Sep-20 06:30N 37°57' E 023°38'0 0.0
2017-Sep-20 06:00N 37°57' E 023°38'0 0.0
2017-Sep-20 05:30N 37°57' E 023°38'0 0.0
2017-Sep-20 05:00N 37°57' E 023°38'0 0.0
2017-Sep-20 04:30N 37°57' E 023°38'0 0.0
2017-Sep-20 04:00N 37°57' E 023°38'0 0.0
2017-Sep-20 03:27N 37°57' E 023°38'0 0.0
2017-Sep-20 03:00N 37°57' E 023°38'0 0.0
2017-Sep-20 02:30N 37°57' E 023°38'0 0.0
2017-Sep-20 02:00N 37°57' E 023°38'0 0.0
2017-Sep-20 01:30N 37°57' E 023°38'0 0.0
2017-Sep-20 01:00N 37°57' E 023°38'0 0.0
2017-Sep-20 00:30N 37°57' E 023°38'0 0.0
2017-Sep-20 00:00N 37°57' E 023°38'0 0.0
2017-Sep-19 23:31N 37°57' E 023°38'0 0.0
2017-Sep-19 23:00N 37°57' E 023°38'0 0.0
2017-Sep-19 22:15N 37°57' E 023°38'0 0.0
2017-Sep-19 22:00N 37°57' E 023°38'0 0.0
2017-Sep-19 21:24N 37°57' E 023°38'0 0.0
2017-Sep-19 20:57N 37°57' E 023°38'0 0.0
2017-Sep-19 20:30N 37°57' E 023°38'0 0.0
2017-Sep-19 20:00N 37°57' E 023°38'0 0.0
2017-Sep-19 19:30N 37°57' E 023°38'0 0.0
2017-Sep-19 19:00N 37°57' E 023°38'0 0.6
2017-Sep-19 18:31N 37°57' E 023°38'4 8.5
2017-Sep-19 18:01N 37°52' E 023°39'918.9
2017-Sep-19 17:30N 37°44' E 023°44'918.6
2017-Sep-19 17:00N 37°37' E 023°52'918.5
2017-Sep-19 16:30N 37°31' E 024°01'918.9
2017-Sep-19 16:00N 37°25' E 024°10'1218.6
2017-Sep-19 15:21N 37°17' E 024°22'2518.9
2017-Sep-19 14:03N 37°10' E 024°52'119.8
2017-Sep-19 14:00N 37°10' E 024°52'1019.1
2017-Sep-19 13:30N 37°07' E 025°04'4 6.7
2017-Sep-19 12:52N 37°05' E 025°09'410.8
2017-Sep-19 12:29N 37°09' E 025°11'815.9
2017-Sep-19 12:00N 37°07' E 025°21'1 2.4
2017-Sep-19 11:31N 37°06' E 025°21'7 0.5
2017-Sep-18 20:51N 36°59' E 025°19'618.5
2017-Sep-18 20:31N 37°06' E 025°20'2 3.9
2017-Sep-18 20:00N 37°07' E 025°22'815.7
2017-Sep-18 19:30N 37°09' E 025°12'5 7.0
2017-Sep-18 18:47N 37°05' E 025°08'517.8
2017-Sep-18 18:30N 37°07' E 025°03'3418.7
2017-Sep-18 16:41N 37°17' E 024°22'519.1
2017-Sep-18 16:24N 37°20' E 024°16'819.7
2017-Sep-18 16:00N 37°25' E 024°08'1019.1
2017-Sep-18 15:30N 37°31' E 023°59'1019.1
2017-Sep-18 15:00N 37°36' E 023°49'918.4
2017-Sep-18 14:30N 37°43' E 023°41'918.5
2017-Sep-18 14:00N 37°51' E 023°37'510.2
2017-Sep-18 13:28N 37°57' E 023°38'0 0.0
2017-Sep-18 12:58N 37°57' E 023°38'0 0.0
2017-Sep-18 12:28N 37°57' E 023°38'0 0.0
2017-Sep-18 11:58N 37°57' E 023°38'0 0.0
2017-Sep-18 11:28N 37°57' E 023°38'0 0.0
2017-Sep-18 10:58N 37°57' E 023°38'0 0.0
2017-Sep-18 10:28N 37°57' E 023°38'0 0.0
2017-Sep-18 09:58N 37°57' E 023°38'0 0.0
2017-Sep-18 09:28N 37°57' E 023°38'0 0.0
2017-Sep-18 08:58N 37°57' E 023°38'0 0.0
2017-Sep-18 08:28N 37°57' E 023°38'0 0.0
2017-Sep-18 07:58N 37°57' E 023°38'0 0.0
2017-Sep-18 07:28N 37°57' E 023°38'0 0.0
2017-Sep-18 06:58N 37°57' E 023°38'0 0.0
2017-Sep-18 06:25N 37°57' E 023°38'0 0.0
2017-Sep-18 05:58N 37°57' E 023°38'0 0.0
2017-Sep-18 05:25N 37°57' E 023°38'0 0.0
2017-Sep-18 04:58N 37°57' E 023°38'0 0.0
2017-Sep-18 04:28N 37°57' E 023°38'0 0.0
2017-Sep-18 03:58N 37°57' E 023°38'0 0.0
2017-Sep-18 03:25N 37°57' E 023°38'0 0.0
2017-Sep-18 02:58N 37°57' E 023°38'0 0.0
2017-Sep-18 02:28N 37°57' E 023°38'0 0.0
2017-Sep-18 01:58N 37°57' E 023°38'0 0.0
2017-Sep-18 01:28N 37°57' E 023°38'0 0.0
2017-Sep-18 00:58N 37°57' E 023°38'0 0.0
2017-Sep-18 00:28N 37°57' E 023°38'0 0.0
2017-Sep-17 23:58N 37°57' E 023°38'0 0.0
2017-Sep-17 23:28N 37°57' E 023°38'0 0.0
2017-Sep-17 22:58N 37°57' E 023°38'0 0.0
2017-Sep-17 22:28N 37°57' E 023°38'0 0.0
2017-Sep-17 21:58N 37°57' E 023°38'0 0.0
2017-Sep-17 21:28N 37°57' E 023°38'0 0.0
2017-Sep-17 20:58N 37°57' E 023°38'0 0.0
2017-Sep-17 20:31N 37°57' E 023°38'0 0.0
2017-Sep-17 20:00N 37°57' E 023°38'0 0.0
2017-Sep-17 19:30N 37°57' E 023°38'0 0.0
2017-Sep-17 19:01N 37°57' E 023°38'0 0.6
2017-Sep-17 18:30N 37°57' E 023°38'5 9.7
2017-Sep-17 18:00N 37°52' E 023°39'918.7
2017-Sep-17 17:31N 37°43' E 023°44'918.2
2017-Sep-17 17:00N 37°37' E 023°52'918.6
2017-Sep-17 16:31N 37°31' E 024°01'4518.5
2017-Sep-17 14:04N 37°10' E 024°51'119.1
2017-Sep-17 14:01N 37°10' E 024°53'918.9
2017-Sep-17 13:31N 37°07' E 025°04'4 6.6
2017-Sep-17 12:55N 37°05' E 025°08'614.9
2017-Sep-17 12:31N 37°10' E 025°13'815.2
2017-Sep-17 12:01N 37°06' E 025°22'3 5.2
2017-Sep-17 11:30N 37°05' E 025°19'6 0.2
2017-Sep-15 20:48N 36°59' E 025°19'518.6
2017-Sep-15 20:31N 37°05' E 025°19'3 6.1
2017-Sep-15 20:01N 37°06' E 025°22'815.8
2017-Sep-15 19:31N 37°10' E 025°13'6 8.0
2017-Sep-15 18:48N 37°05' E 025°09'414.8
2017-Sep-15 18:30N 37°07' E 025°04'918.8
2017-Sep-15 18:00N 37°09' E 024°53'2518.6
2017-Sep-15 16:40N 37°17' E 024°23'619.0
2017-Sep-15 16:22N 37°20' E 024°17'819.7
2017-Sep-15 15:57N 37°25' E 024°08'819.1
2017-Sep-15 15:30N 37°30' E 023°60'1019.1
2017-Sep-15 15:00N 37°35' E 023°50'918.5
2017-Sep-15 14:30N 37°42' E 023°42'918.6
2017-Sep-15 14:00N 37°50' E 023°37'712.9
2017-Sep-15 13:30N 37°57' E 023°38'0 0.0
2017-Sep-15 13:00N 37°57' E 023°38'0 0.0
2017-Sep-15 12:30N 37°57' E 023°38'0 0.2
2017-Sep-15 12:00N 37°57' E 023°38'4 8.6
2017-Sep-15 11:31N 37°53' E 023°39'918.7
2017-Sep-15 11:01N 37°44' E 023°44'918.2
2017-Sep-15 10:31N 37°37' E 023°52'918.9
2017-Sep-15 10:01N 37°31' E 024°01'4618.4
2017-Sep-15 07:32N 37°10' E 024°52'019.9
2017-Sep-15 07:31N 37°10' E 024°52'1019.2
2017-Sep-15 07:01N 37°07' E 025°04'4 6.3
2017-Sep-15 06:22N 37°05' E 025°08'515.3
2017-Sep-15 06:00N 37°09' E 025°12'714.9
2017-Sep-15 05:30N 37°07' E 025°21'2 4.7
2017-Sep-15 05:01N 37°05' E 025°19'6 0.7
2017-Sep-14 20:52N 36°59' E 025°19'718.3
2017-Sep-14 20:30N 37°06' E 025°20'2 4.1
2017-Sep-14 20:01N 37°06' E 025°22'815.8
2017-Sep-14 19:31N 37°10' E 025°13'5 8.2
2017-Sep-14 18:50N 37°05' E 025°09'515.3
2017-Sep-14 18:30N 37°07' E 025°03'918.3
2017-Sep-14 18:00N 37°10' E 024°52'4318.7
2017-Sep-14 15:43N 37°28' E 024°03'419.1
2017-Sep-14 15:30N 37°30' E 023°59'918.7
2017-Sep-14 15:00N 37°36' E 023°50'918.4
2017-Sep-14 14:30N 37°42' E 023°41'918.9
2017-Sep-14 14:00N 37°51' E 023°37'610.3
2017-Sep-14 13:25N 37°57' E 023°38'0 0.0
2017-Sep-14 12:55N 37°57' E 023°38'0 0.0
2017-Sep-14 12:28N 37°57' E 023°38'0 0.6
2017-Sep-14 12:01N 37°57' E 023°38'510.8
2017-Sep-14 11:30N 37°51' E 023°40'918.4
2017-Sep-14 11:00N 37°43' E 023°44'918.1
2017-Sep-14 10:30N 37°37' E 023°53'918.4
2017-Sep-14 10:01N 37°31' E 024°02'4518.1
2017-Sep-14 07:32N 37°10' E 024°52'018.8
2017-Sep-14 07:30N 37°10' E 024°52'1019.1
2017-Sep-14 07:00N 37°07' E 025°04'4 8.0
2017-Sep-14 06:27N 37°05' E 025°09'613.7
2017-Sep-14 06:01N 37°10' E 025°13'815.0
2017-Sep-14 05:31N 37°06' E 025°22'2 4.4
2017-Sep-14 05:00N 37°05' E 025°19'6 0.7
2017-Sep-13 20:41N 36°59' E 025°19'319.5
2017-Sep-13 20:31N 37°02' E 025°18'510.0
2017-Sep-13 20:00N 37°06' E 025°22'612.7
2017-Sep-13 19:30N 37°10' E 025°16'815.7
2017-Sep-13 18:59N 37°05' E 025°08'2 4.3
2017-Sep-13 18:30N 37°06' E 025°05'918.9
2017-Sep-13 18:00N 37°09' E 024°54'4019.1
2017-Sep-13 15:54N 37°25' E 024°08'819.3
2017-Sep-13 15:28N 37°30' E 023°59'918.8
2017-Sep-13 15:00N 37°35' E 023°50'918.3
2017-Sep-13 14:30N 37°41' E 023°42'919.0
2017-Sep-13 14:00N 37°50' E 023°37'7 8.8
2017-Sep-13 13:15N 37°57' E 023°38'0 0.0
2017-Sep-13 12:57N 37°57' E 023°38'0 0.0
2017-Sep-13 12:27N 37°57' E 023°38'0 0.0
2017-Sep-13 11:57N 37°57' E 023°38'0 0.0
2017-Sep-13 11:15N 37°57' E 023°38'0 0.0
2017-Sep-13 10:27N 37°57' E 023°38'0 0.0
2017-Sep-13 09:45N 37°57' E 023°38'0 0.0
2017-Sep-13 08:39N 37°57' E 023°38'0 0.0
2017-Sep-13 08:21N 37°57' E 023°38'0 0.0
2017-Sep-13 07:27N 37°57' E 023°38'0 0.0
2017-Sep-13 06:27N 37°57' E 023°38'0 0.0
2017-Sep-13 05:54N 37°57' E 023°38'0 0.0
2017-Sep-13 05:24N 37°57' E 023°38'0 0.0
2017-Sep-13 04:21N 37°57' E 023°38'0 0.0
2017-Sep-13 03:57N 37°57' E 023°38'0 0.0
2017-Sep-13 03:21N 37°57' E 023°38'0 0.0
2017-Sep-13 02:57N 37°57' E 023°38'0 0.0
2017-Sep-13 02:27N 37°57' E 023°38'0 0.0
2017-Sep-13 01:57N 37°57' E 023°38'0 0.0
2017-Sep-12 23:51N 37°57' E 023°38'0 0.0
2017-Sep-12 23:27N 37°57' E 023°38'0 0.0
2017-Sep-12 22:57N 37°57' E 023°38'0 0.0
2017-Sep-12 22:00N 37°57' E 023°38'0 0.0
2017-Sep-12 21:21N 37°57' E 023°38'0 0.0
2017-Sep-12 21:00N 37°57' E 023°38'0 0.0
2017-Sep-12 20:30N 37°57' E 023°38'0 0.0
2017-Sep-12 20:00N 37°57' E 023°38'0 0.0
2017-Sep-12 19:24N 37°57' E 023°38'0 0.0
2017-Sep-12 19:00N 37°57' E 023°38'2 3.2
2017-Sep-12 18:31N 37°55' E 023°37'816.5
2017-Sep-12 18:00N 37°48' E 023°41'917.9
2017-Sep-12 17:30N 37°40' E 023°47'918.0
2017-Sep-12 17:00N 37°37' E 023°58'918.0
2017-Sep-12 16:31N 37°34' E 024°08'3318.0
2017-Sep-12 14:40N 37°18' E 024°46'318.3
2017-Sep-12 14:31N 37°17' E 024°48'918.5
2017-Sep-12 14:00N 37°11' E 024°58'918.1
2017-Sep-12 13:30N 37°06' E 025°07'1 1.5
2017-Sep-12 12:59N 37°06' E 025°08'817.1
2017-Sep-12 12:31N 37°10' E 025°17'611.2
2017-Sep-12 12:00N 37°06' E 025°22'4 8.9
2017-Sep-12 11:31N 37°03' E 025°18'4 0.3
2017-Sep-11 21:00N 36°59' E 025°19'714.9
2017-Sep-11 20:30N 37°06' E 025°21'3 5.9
2017-Sep-11 20:00N 37°09' E 025°19'816.6
2017-Sep-11 19:30N 37°08' E 025°09'2 4.6
2017-Sep-11 19:01N 37°05' E 025°09'816.1
2017-Sep-11 18:30N 37°08' E 024°59'3318.2
2017-Sep-11 16:41N 37°18' E 024°20'318.1
2017-Sep-11 16:30N 37°20' E 024°16'1318.6
2017-Sep-11 15:49N 37°27' E 024°03'618.3
2017-Sep-11 15:30N 37°31' E 023°58'  
Track history (hours):
 
Tides and Currents Weather Stations Pressure Air Temp Water Temp Dewpoint Dewpoint Depression Visibility Wind Speed Wind Dir Waves Ship Positions

Nissos Samos

Last reported at 2017-Sep-21 15:09 UTC. Time now 2017-Sep-21 18:00 UTC.
Position N 37°34' E 023°52'.

Length 193 m; draft 6.8 m.

Type: Passenger vessel. MMSI: 241470000.

Date/timePositionNaut miles runAvg speedWind from/ knotsBaromVisibWave heightAir tempDewpointWater temp
2017-Sep-21 15:09N 37°34' E 023°52'319.3
2017-Sep-21 14:59N 37°36' E 023°49'918.7
2017-Sep-21 14:30N 37°42' E 023°41'1019.2
2017-Sep-21 14:00N 37°51' E 023°37'610.8
2017-Sep-21 13:29N 37°57' E 023°38'0 0.0
2017-Sep-21 13:00N 37°57' E 023°38'0 0.0
2017-Sep-21 12:30N 37°57' E 023°38'1 3.0
2017-Sep-21 12:01N 37°56' E 023°37'918.1
2017-Sep-21 11:30N 37°48' E 023°42'917.8
2017-Sep-21 11:00N 37°40' E 023°48'1018.6
2017-Sep-21 10:29N 37°36' E 023°59'1018.2
2017-Sep-21 09:55N 37°33' E 024°11'3018.0
2017-Sep-21 08:15N 37°20' E 024°45'418.2
2017-Sep-21 08:00N 37°17' E 024°49'918.2
2017-Sep-21 07:30N 37°11' E 024°58'917.8
2017-Sep-21 07:00N 37°06' E 025°07'1 1.6
2017-Sep-21 06:30N 37°06' E 025°08'917.9
2017-Sep-21 06:00N 37°10' E 025°18'510.0
2017-Sep-21 05:30N 37°06' E 025°22'611.6
2017-Sep-21 05:00N 37°01' E 025°18'2 0.3
2017-Sep-20 20:52N 36°59' E 025°19'617.9
2017-Sep-20 20:31N 37°05' E 025°20'2 4.2
2017-Sep-20 20:01N 37°06' E 025°22'815.7
2017-Sep-20 19:30N 37°10' E 025°13'6 8.5
2017-Sep-20 18:50N 37°05' E 025°09'515.7
2017-Sep-20 18:30N 37°07' E 025°03'5218.5
2017-Sep-20 15:43N 37°28' E 024°03'618.5
2017-Sep-20 15:23N 37°32' E 023°57'719.0
2017-Sep-20 15:00N 37°36' E 023°50'1818.3
2017-Sep-20 14:00N 37°51' E 023°37'612.0
2017-Sep-20 13:30N 37°57' E 023°38'0 0.0
2017-Sep-20 13:00N 37°57' E 023°38'0 0.0
2017-Sep-20 12:30N 37°57' E 023°38'0 0.0
2017-Sep-20 12:00N 37°57' E 023°38'0 0.0
2017-Sep-20 11:30N 37°57' E 023°38'0 0.0
2017-Sep-20 11:00N 37°57' E 023°38'0 0.0
2017-Sep-20 10:30N 37°57' E 023°38'0 0.0
2017-Sep-20 10:00N 37°57' E 023°38'0 0.0
2017-Sep-20 09:30N 37°57' E 023°38'0 0.0
2017-Sep-20 09:00N 37°57' E 023°38'0 0.0
2017-Sep-20 08:27N 37°57' E 023°38'0 0.0
2017-Sep-20 08:00N 37°57' E 023°38'0 0.0
2017-Sep-20 07:30N 37°57' E 023°38'0 0.0
2017-Sep-20 07:00N 37°57' E 023°38'0 0.0
2017-Sep-20 06:30N 37°57' E 023°38'0 0.0
2017-Sep-20 06:00N 37°57' E 023°38'0 0.0
2017-Sep-20 05:30N 37°57' E 023°38'0 0.0
2017-Sep-20 05:00N 37°57' E 023°38'0 0.0
2017-Sep-20 04:30N 37°57' E 023°38'0 0.0
2017-Sep-20 04:00N 37°57' E 023°38'0 0.0
2017-Sep-20 03:27N 37°57' E 023°38'0 0.0
2017-Sep-20 03:00N 37°57' E 023°38'0 0.0
2017-Sep-20 02:30N 37°57' E 023°38'0 0.0
2017-Sep-20 02:00N 37°57' E 023°38'0 0.0
2017-Sep-20 01:30N 37°57' E 023°38'0 0.0
2017-Sep-20 01:00N 37°57' E 023°38'0 0.0
2017-Sep-20 00:30N 37°57' E 023°38'0 0.0
2017-Sep-20 00:00N 37°57' E 023°38'0 0.0
2017-Sep-19 23:31N 37°57' E 023°38'0 0.0
2017-Sep-19 23:00N 37°57' E 023°38'0 0.0
2017-Sep-19 22:15N 37°57' E 023°38'0 0.0
2017-Sep-19 22:00N 37°57' E 023°38'0 0.0
2017-Sep-19 21:24N 37°57' E 023°38'0 0.0
2017-Sep-19 20:57N 37°57' E 023°38'0 0.0
2017-Sep-19 20:30N 37°57' E 023°38'0 0.0
2017-Sep-19 20:00N 37°57' E 023°38'0 0.0
2017-Sep-19 19:30N 37°57' E 023°38'0 0.0
2017-Sep-19 19:00N 37°57' E 023°38'0 0.6
2017-Sep-19 18:31N 37°57' E 023°38'4 8.5
2017-Sep-19 18:01N 37°52' E 023°39'918.9
2017-Sep-19 17:30N 37°44' E 023°44'918.6
2017-Sep-19 17:00N 37°37' E 023°52'918.5
2017-Sep-19 16:30N 37°31' E 024°01'918.9
2017-Sep-19 16:00N 37°25' E 024°10'1218.6
2017-Sep-19 15:21N 37°17' E 024°22'2518.9
2017-Sep-19 14:03N 37°10' E 024°52'119.8
2017-Sep-19 14:00N 37°10' E 024°52'1019.1
2017-Sep-19 13:30N 37°07' E 025°04'4 6.7
2017-Sep-19 12:52N 37°05' E 025°09'410.8
2017-Sep-19 12:29N 37°09' E 025°11'815.9
2017-Sep-19 12:00N 37°07' E 025°21'1 2.4
2017-Sep-19 11:31N 37°06' E 025°21'7 0.5
2017-Sep-18 20:51N 36°59' E 025°19'618.5
2017-Sep-18 20:31N 37°06' E 025°20'2 3.9
2017-Sep-18 20:00N 37°07' E 025°22'815.7
2017-Sep-18 19:30N 37°09' E 025°12'5 7.0
2017-Sep-18 18:47N 37°05' E 025°08'517.8
2017-Sep-18 18:30N 37°07' E 025°03'3418.7
2017-Sep-18 16:41N 37°17' E 024°22'519.1
2017-Sep-18 16:24N 37°20' E 024°16'819.7
2017-Sep-18 16:00N 37°25' E 024°08'1019.1
2017-Sep-18 15:30N 37°31' E 023°59'1019.1
2017-Sep-18 15:00N 37°36' E 023°49'918.4
2017-Sep-18 14:30N 37°43' E 023°41'918.5
2017-Sep-18 14:00N 37°51' E 023°37'510.2
2017-Sep-18 13:28N 37°57' E 023°38'0 0.0
2017-Sep-18 12:58N 37°57' E 023°38'0 0.0
2017-Sep-18 12:28N 37°57' E 023°38'0 0.0
2017-Sep-18 11:58N 37°57' E 023°38'0 0.0
2017-Sep-18 11:28N 37°57' E 023°38'0 0.0
2017-Sep-18 10:58N 37°57' E 023°38'0 0.0
2017-Sep-18 10:28N 37°57' E 023°38'0 0.0
2017-Sep-18 09:58N 37°57' E 023°38'0 0.0
2017-Sep-18 09:28N 37°57' E 023°38'0 0.0
2017-Sep-18 08:58N 37°57' E 023°38'0 0.0
2017-Sep-18 08:28N 37°57' E 023°38'0 0.0
2017-Sep-18 07:58N 37°57' E 023°38'0 0.0
2017-Sep-18 07:28N 37°57' E 023°38'0 0.0
2017-Sep-18 06:58N 37°57' E 023°38'0 0.0
2017-Sep-18 06:25N 37°57' E 023°38'0 0.0
2017-Sep-18 05:58N 37°57' E 023°38'0 0.0
2017-Sep-18 05:25N 37°57' E 023°38'0 0.0
2017-Sep-18 04:58N 37°57' E 023°38'0 0.0
2017-Sep-18 04:28N 37°57' E 023°38'0 0.0
2017-Sep-18 03:58N 37°57' E 023°38'0 0.0
2017-Sep-18 03:25N 37°57' E 023°38'0 0.0
2017-Sep-18 02:58N 37°57' E 023°38'0 0.0
2017-Sep-18 02:28N 37°57' E 023°38'0 0.0
2017-Sep-18 01:58N 37°57' E 023°38'0 0.0
2017-Sep-18 01:28N 37°57' E 023°38'0 0.0
2017-Sep-18 00:58N 37°57' E 023°38'0 0.0
2017-Sep-18 00:28N 37°57' E 023°38'0 0.0
2017-Sep-17 23:58N 37°57' E 023°38'0 0.0
2017-Sep-17 23:28N 37°57' E 023°38'0 0.0
2017-Sep-17 22:58N 37°57' E 023°38'0 0.0
2017-Sep-17 22:28N 37°57' E 023°38'0 0.0
2017-Sep-17 21:58N 37°57' E 023°38'0 0.0
2017-Sep-17 21:28N 37°57' E 023°38'0 0.0
2017-Sep-17 20:58N 37°57' E 023°38'0 0.0
2017-Sep-17 20:31N 37°57' E 023°38'0 0.0
2017-Sep-17 20:00N 37°57' E 023°38'0 0.0
2017-Sep-17 19:30N 37°57' E 023°38'0 0.0
2017-Sep-17 19:01N 37°57' E 023°38'0 0.6
2017-Sep-17 18:30N 37°57' E 023°38'5 9.7
2017-Sep-17 18:00N 37°52' E 023°39'918.7
2017-Sep-17 17:31N 37°43' E 023°44'918.2
2017-Sep-17 17:00N 37°37' E 023°52'918.6
2017-Sep-17 16:31N 37°31' E 024°01'4518.5
2017-Sep-17 14:04N 37°10' E 024°51'119.1
2017-Sep-17 14:01N 37°10' E 024°53'918.9
2017-Sep-17 13:31N 37°07' E 025°04'4 6.6
2017-Sep-17 12:55N 37°05' E 025°08'614.9
2017-Sep-17 12:31N 37°10' E 025°13'815.2
2017-Sep-17 12:01N 37°06' E 025°22'3 5.2
2017-Sep-17 11:30N 37°05' E 025°19'6 0.2
2017-Sep-15 20:48N 36°59' E 025°19'518.6
2017-Sep-15 20:31N 37°05' E 025°19'3 6.1
2017-Sep-15 20:01N 37°06' E 025°22'815.8
2017-Sep-15 19:31N 37°10' E 025°13'6 8.0
2017-Sep-15 18:48N 37°05' E 025°09'414.8
2017-Sep-15 18:30N 37°07' E 025°04'918.8
2017-Sep-15 18:00N 37°09' E 024°53'2518.6
2017-Sep-15 16:40N 37°17' E 024°23'619.0
2017-Sep-15 16:22N 37°20' E 024°17'819.7
2017-Sep-15 15:57N 37°25' E 024°08'819.1
2017-Sep-15 15:30N 37°30' E 023°60'1019.1
2017-Sep-15 15:00N 37°35' E 023°50'918.5
2017-Sep-15 14:30N 37°42' E 023°42'918.6
2017-Sep-15 14:00N 37°50' E 023°37'712.9
2017-Sep-15 13:30N 37°57' E 023°38'0 0.0
2017-Sep-15 13:00N 37°57' E 023°38'0 0.0
2017-Sep-15 12:30N 37°57' E 023°38'0 0.2
2017-Sep-15 12:00N 37°57' E 023°38'4 8.6
2017-Sep-15 11:31N 37°53' E 023°39'918.7
2017-Sep-15 11:01N 37°44' E 023°44'918.2
2017-Sep-15 10:31N 37°37' E 023°52'918.9
2017-Sep-15 10:01N 37°31' E 024°01'4618.4
2017-Sep-15 07:32N 37°10' E 024°52'019.9
2017-Sep-15 07:31N 37°10' E 024°52'1019.2
2017-Sep-15 07:01N 37°07' E 025°04'4 6.3
2017-Sep-15 06:22N 37°05' E 025°08'515.3
2017-Sep-15 06:00N 37°09' E 025°12'714.9
2017-Sep-15 05:30N 37°07' E 025°21'2 4.7
2017-Sep-15 05:01N 37°05' E 025°19'6 0.7
2017-Sep-14 20:52N 36°59' E 025°19'718.3
2017-Sep-14 20:30N 37°06' E 025°20'2 4.1
2017-Sep-14 20:01N 37°06' E 025°22'815.8
2017-Sep-14 19:31N 37°10' E 025°13'5 8.2
2017-Sep-14 18:50N 37°05' E 025°09'515.3
2017-Sep-14 18:30N 37°07' E 025°03'918.3
2017-Sep-14 18:00N 37°10' E 024°52'4318.7
2017-Sep-14 15:43N 37°28' E 024°03'419.1
2017-Sep-14 15:30N 37°30' E 023°59'918.7
2017-Sep-14 15:00N 37°36' E 023°50'918.4
2017-Sep-14 14:30N 37°42' E 023°41'918.9
2017-Sep-14 14:00N 37°51' E 023°37'610.3
2017-Sep-14 13:25N 37°57' E 023°38'0 0.0
2017-Sep-14 12:55N 37°57' E 023°38'0 0.0
2017-Sep-14 12:28N 37°57' E 023°38'0 0.6
2017-Sep-14 12:01N 37°57' E 023°38'510.8
2017-Sep-14 11:30N 37°51' E 023°40'918.4
2017-Sep-14 11:00N 37°43' E 023°44'918.1
2017-Sep-14 10:30N 37°37' E 023°53'918.4
2017-Sep-14 10:01N 37°31' E 024°02'4518.1
2017-Sep-14 07:32N 37°10' E 024°52'018.8
2017-Sep-14 07:30N 37°10' E 024°52'1019.1
2017-Sep-14 07:00N 37°07' E 025°04'4 8.0
2017-Sep-14 06:27N 37°05' E 025°09'613.7
2017-Sep-14 06:01N 37°10' E 025°13'815.0
2017-Sep-14 05:31N 37°06' E 025°22'2 4.4
2017-Sep-14 05:00N 37°05' E 025°19'6 0.7
2017-Sep-13 20:41N 36°59' E 025°19'319.5
2017-Sep-13 20:31N 37°02' E 025°18'510.0
2017-Sep-13 20:00N 37°06' E 025°22'612.7
2017-Sep-13 19:30N 37°10' E 025°16'815.7
2017-Sep-13 18:59N 37°05' E 025°08'2 4.3
2017-Sep-13 18:30N 37°06' E 025°05'918.9
2017-Sep-13 18:00N 37°09' E 024°54'4019.1
2017-Sep-13 15:54N 37°25' E 024°08'819.3
2017-Sep-13 15:28N 37°30' E 023°59'918.8
2017-Sep-13 15:00N 37°35' E 023°50'918.3
2017-Sep-13 14:30N 37°41' E 023°42'919.0
2017-Sep-13 14:00N 37°50' E 023°37'7 8.8
2017-Sep-13 13:15N 37°57' E 023°38'0 0.0
2017-Sep-13 12:57N 37°57' E 023°38'0 0.0
2017-Sep-13 12:27N 37°57' E 023°38'0 0.0
2017-Sep-13 11:57N 37°57' E 023°38'0 0.0
2017-Sep-13 11:15N 37°57' E 023°38'0 0.0
2017-Sep-13 10:27N 37°57' E 023°38'0 0.0
2017-Sep-13 09:45N 37°57' E 023°38'0 0.0
2017-Sep-13 08:39N 37°57' E 023°38'0 0.0
2017-Sep-13 08:21N 37°57' E 023°38'0 0.0
2017-Sep-13 07:27N 37°57' E 023°38'0 0.0
2017-Sep-13 06:27N 37°57' E 023°38'0 0.0
2017-Sep-13 05:54N 37°57' E 023°38'0 0.0
2017-Sep-13 05:24N 37°57' E 023°38'0 0.0
2017-Sep-13 04:21N 37°57' E 023°38'0 0.0
2017-Sep-13 03:57N 37°57' E 023°38'0 0.0
2017-Sep-13 03:21N 37°57' E 023°38'0 0.0
2017-Sep-13 02:57N 37°57' E 023°38'0 0.0
2017-Sep-13 02:27N 37°57' E 023°38'0 0.0
2017-Sep-13 01:57N 37°57' E 023°38'0 0.0
2017-Sep-12 23:51N 37°57' E 023°38'0 0.0
2017-Sep-12 23:27N 37°57' E 023°38'0 0.0
2017-Sep-12 22:57N 37°57' E 023°38'0 0.0
2017-Sep-12 22:00N 37°57' E 023°38'0 0.0
2017-Sep-12 21:21N 37°57' E 023°38'0 0.0
2017-Sep-12 21:00N 37°57' E 023°38'0 0.0
2017-Sep-12 20:30N 37°57' E 023°38'0 0.0
2017-Sep-12 20:00N 37°57' E 023°38'0 0.0
2017-Sep-12 19:24N 37°57' E 023°38'0 0.0
2017-Sep-12 19:00N 37°57' E 023°38'2 3.2
2017-Sep-12 18:31N 37°55' E 023°37'816.5
2017-Sep-12 18:00N 37°48' E 023°41'917.9
2017-Sep-12 17:30N 37°40' E 023°47'918.0
2017-Sep-12 17:00N 37°37' E 023°58'918.0
2017-Sep-12 16:31N 37°34' E 024°08'3318.0
2017-Sep-12 14:40N 37°18' E 024°46'318.3
2017-Sep-12 14:31N 37°17' E 024°48'918.5
2017-Sep-12 14:00N 37°11' E 024°58'918.1
2017-Sep-12 13:30N 37°06' E 025°07'1 1.5
2017-Sep-12 12:59N 37°06' E 025°08'817.1
2017-Sep-12 12:31N 37°10' E 025°17'611.2
2017-Sep-12 12:00N 37°06' E 025°22'4 8.9
2017-Sep-12 11:31N 37°03' E 025°18'4 0.3
2017-Sep-11 21:00N 36°59' E 025°19'714.9
2017-Sep-11 20:30N 37°06' E 025°21'3 5.9
2017-Sep-11 20:00N 37°09' E 025°19'816.6
2017-Sep-11 19:30N 37°08' E 025°09'2 4.6
2017-Sep-11 19:01N 37°05' E 025°09'816.1
2017-Sep-11 18:30N 37°08' E 024°59'3318.2
2017-Sep-11 16:41N 37°18' E 024°20'318.1
2017-Sep-11 16:30N 37°20' E 024°16'1318.6
2017-Sep-11 15:49N 37°27' E 024°03'618.3
2017-Sep-11 15:30N 37°31' E 023°58'  

Dump ship's entire track history